Airfield :
LOGIN :

Register | Disclaimer

   EN    FR    IT 

 










Legend :    VFR   Marginal VFR   IFR   Intensive IFR   Very Intensive IFR
Visi :
Ceiling :
>= 8 km
>= 3000ft
5 to 8 km
1000 to 3000 ft
1500m to 5 km
500 to 1000 ft
800 to 1500m
200 to 500 ft
< 800m
< 200 ft
Symbols :   Thunderstorms  Fog  Heavy snow  Heavy precipitations  Wind > 20 kt
SIGMETs :     Misc.  Thunderstorms  Icing  Turbulence  Mountain Waves  Volcanic Ashes






- Airport Elevation : 373 ft
- IATA code : OZH


UKDE - Mokraya

CURRENT METAR :
  • 051330Z 06004MPS 010V100 CAVOK 03/M03 Q1030 R02/210070 NOSIG

EXPIRED METARs :
  • 051300Z 07005MPS 020V100 CAVOK 03/M02 Q1030 R02/210070 NOSIG
  • 051230Z 07007MPS CAVOK 04/M02 Q1029 R02/210070 NOSIG
  • 051200Z 07007MPS CAVOK 04/M02 Q1029 R02/210070 NOSIG
  • 051130Z 07007MPS 040V100 CAVOK 04/M01 Q1029 R02/210070 TEMPO 09008G13MPS

TAF TAF UKDE
Valid from the 05 at 12:00 until the 05 at 21:00 UTC


051103Z 0512/0521 07006MPS 9999 BKN015 TX04/0512Z TNM03/0521Z
TEMPO 0512/0515 09008G13MPS
TEMPO 0515/0521 3100 BR BKN006
UKDV FIR / Europe



MET'MAP, your aeronautical weather chart ! - Copyright ORBIFLY December 2007 - Disclaimer

ORBIFLY MET'MAP TEAM :

Programming & Development : Alexandra Zaïnal
Concept & original design : Baudouin d'Aumeries
Assistance for programming : Marc-Olivier Méhu
Technical & hardware support : Manuel Goepfert

Contact : metmap@orbifly.com




SOURCES & CREDITS :

   NOAA